sensor_id;sensor_type;location;lat;lon;timestamp;pressure;altitude;pressure_sealevel;temperature;humidity
43745;BME280;29359;53.048;8.732;2022-09-16T00:01:18;100759.09;;;11.52;89.36
43745;BME280;29359;53.048;8.732;2022-09-16T00:03:20;100758.22;;;11.52;89.37
43745;BME280;29359;53.048;8.732;2022-09-16T00:05:22;100764.47;;;11.49;89.55
43745;BME280;29359;53.048;8.732;2022-09-16T00:07:23;100754.81;;;11.48;89.55
43745;BME280;29359;53.048;8.732;2022-09-16T00:09:24;100770.78;;;11.45;89.99
43745;BME280;29359;53.048;8.732;2022-09-16T00:11:26;100773.53;;;11.42;89.64
43745;BME280;29359;53.048;8.732;2022-09-16T00:13:28;100764.78;;;11.40;89.80
43745;BME280;29359;53.048;8.732;2022-09-16T00:15:30;100771.91;;;11.38;90.23
43745;BME280;29359;53.048;8.732;2022-09-16T00:17:31;100765.81;;;11.36;90.08
43745;BME280;29359;53.048;8.732;2022-09-16T00:19:33;100774.66;;;11.35;90.73
43745;BME280;29359;53.048;8.732;2022-09-16T00:21:34;100770.28;;;11.34;90.27
43745;BME280;29359;53.048;8.732;2022-09-16T00:23:36;100773.81;;;11.33;90.36
43745;BME280;29359;53.048;8.732;2022-09-16T00:25:38;100772.09;;;11.32;90.38
43745;BME280;29359;53.048;8.732;2022-09-16T00:27:39;100773.00;;;11.31;90.37
43745;BME280;29359;53.048;8.732;2022-09-16T00:29:41;100764.28;;;11.29;90.50
43745;BME280;29359;53.048;8.732;2022-09-16T00:31:42;100759.03;;;11.27;90.55
43745;BME280;29359;53.048;8.732;2022-09-16T00:33:44;100764.31;;;11.27;90.53
43745;BME280;29359;53.048;8.732;2022-09-16T00:35:46;100759.91;;;11.26;90.51
43745;BME280;29359;53.048;8.732;2022-09-16T00:37:47;100756.50;;;11.23;90.58
43745;BME280;29359;53.048;8.732;2022-09-16T00:39:49;100762.63;;;11.25;90.27
43745;BME280;29359;53.048;8.732;2022-09-16T00:41:51;100751.22;;;11.23;90.68
43745;BME280;29359;53.048;8.732;2022-09-16T00:44:03;100761.78;;;11.23;90.84
43745;BME280;29359;53.048;8.732;2022-09-16T00:46:05;100767.13;;;11.21;91.14
43745;BME280;29359;53.048;8.732;2022-09-16T00:48:08;100765.41;;;11.20;91.40
43745;BME280;29359;53.048;8.732;2022-09-16T00:50:19;100765.41;;;11.20;91.41
43745;BME280;29359;53.048;8.732;2022-09-16T00:52:21;100768.03;;;11.20;91.38
43745;BME280;29359;53.048;8.732;2022-09-16T00:54:23;100766.22;;;11.22;91.67
43745;BME280;29359;53.048;8.732;2022-09-16T00:56:27;100763.56;;;11.22;91.39
43745;BME280;29359;53.048;8.732;2022-09-16T00:58:55;100766.22;;;11.22;91.50
43745;BME280;29359;53.048;8.732;2022-09-16T01:01:03;100760.06;;;11.22;91.73
43745;BME280;29359;53.048;8.732;2022-09-16T01:03:06;100770.59;;;11.23;91.59
43745;BME280;29359;53.048;8.732;2022-09-16T01:05:11;100770.50;;;11.26;91.52
43745;BME280;29359;53.048;8.732;2022-09-16T01:07:14;100787.97;;;11.32;91.34
43745;BME280;29359;53.048;8.732;2022-09-16T01:09:18;100786.13;;;11.34;88.14
43745;BME280;29359;53.048;8.732;2022-09-16T01:11:21;100781.56;;;11.39;88.81
43745;BME280;29359;53.048;8.732;2022-09-16T01:13:22;100781.47;;;11.42;89.29
43745;BME280;29359;53.048;8.732;2022-09-16T01:15:36;100776.06;;;11.45;89.64
43745;BME280;29359;53.048;8.732;2022-09-16T01:31:56;100778.09;;;11.37;89.98
43745;BME280;29359;53.048;8.732;2022-09-16T01:34:18;100771.03;;;11.38;90.32
43745;BME280;29359;53.048;8.732;2022-09-16T01:38:54;100775.59;;;11.32;90.89
43745;BME280;29359;53.048;8.732;2022-09-16T01:41:17;100776.53;;;11.31;91.03
43745;BME280;29359;53.048;8.732;2022-09-16T01:43:53;100773.00;;;11.31;91.21
43745;BME280;29359;53.048;8.732;2022-09-16T01:49:03;100765.22;;;11.26;91.34
43745;BME280;29359;53.048;8.732;2022-09-16T01:51:20;100760.78;;;11.27;91.54
43745;BME280;29359;53.048;8.732;2022-09-16T01:53:28;100759.97;;;11.25;91.68
43745;BME280;29359;53.048;8.732;2022-09-16T01:55:39;100755.53;;;11.25;91.72
43745;BME280;29359;53.048;8.732;2022-09-16T01:58:09;100765.31;;;11.23;91.58
43745;BME280;29359;53.048;8.732;2022-09-16T02:00:16;100757.31;;;11.25;91.90
43745;BME280;29359;53.048;8.732;2022-09-16T02:02:22;100755.53;;;11.25;91.83
43745;BME280;29359;53.048;8.732;2022-09-16T02:04:54;100754.69;;;11.25;91.84
43745;BME280;29359;53.048;8.732;2022-09-16T02:06:58;100758.19;;;11.25;92.16
43745;BME280;29359;53.048;8.732;2022-09-16T02:09:15;100753.88;;;11.23;91.98
43745;BME280;29359;53.048;8.732;2022-09-16T02:11:19;100746.81;;;11.23;91.92
43745;BME280;29359;53.048;8.732;2022-09-16T02:13:45;100747.78;;;11.21;91.79
43745;BME280;29359;53.048;8.732;2022-09-16T02:15:50;100743.28;;;11.23;91.67
43745;BME280;29359;53.048;8.732;2022-09-16T02:18:00;100743.28;;;11.23;91.36
43745;BME280;29359;53.048;8.732;2022-09-16T02:20:13;100743.28;;;11.23;91.00
43745;BME280;29359;53.048;8.732;2022-09-16T02:22:23;100743.28;;;11.23;91.27
43745;BME280;29359;53.048;8.732;2022-09-16T02:24:26;100743.44;;;11.18;91.04
43745;BME280;29359;53.048;8.732;2022-09-16T02:26:33;100746.00;;;11.21;90.78
43745;BME280;29359;53.048;8.732;2022-09-16T02:28:38;100739.78;;;11.22;91.08
43745;BME280;29359;53.048;8.732;2022-09-16T02:30:45;100743.28;;;11.23;90.69
43745;BME280;29359;53.048;8.732;2022-09-16T02:32:57;100739.69;;;11.25;89.90
43745;BME280;29359;53.048;8.732;2022-09-16T02:35:01;100735.28;;;11.26;90.03
43745;BME280;29359;53.048;8.732;2022-09-16T02:37:08;100738.75;;;11.28;89.98
43745;BME280;29359;53.048;8.732;2022-09-16T02:39:16;100751.97;;;11.28;90.07
43745;BME280;29359;53.048;8.732;2022-09-16T02:41:19;100766.91;;;11.29;89.94
43745;BME280;29359;53.048;8.732;2022-09-16T02:43:22;100782.69;;;11.32;90.03
43745;BME280;29359;53.048;8.732;2022-09-16T02:45:33;100785.31;;;11.32;89.73
43745;BME280;29359;53.048;8.732;2022-09-16T02:47:59;100769.50;;;11.30;90.18
43745;BME280;29359;53.048;8.732;2022-09-16T02:50:14;100766.88;;;11.30;90.39
43745;BME280;29359;53.048;8.732;2022-09-16T02:52:39;100777.53;;;11.27;90.75
43745;BME280;29359;53.048;8.732;2022-09-16T02:55:00;100765.34;;;11.22;91.19
43745;BME280;29359;53.048;8.732;2022-09-16T02:57:05;100765.56;;;11.16;91.77
43745;BME280;29359;53.048;8.732;2022-09-16T02:59:09;100759.56;;;11.11;92.14
43745;BME280;29359;53.048;8.732;2022-09-16T03:01:12;100764.06;;;11.07;92.58
43745;BME280;29359;53.048;8.732;2022-09-16T03:03:14;100764.13;;;11.06;92.36
43745;BME280;29359;53.048;8.732;2022-09-16T03:05:15;100758.88;;;11.04;92.65
43745;BME280;29359;53.048;8.732;2022-09-16T03:07:17;100756.28;;;11.02;92.49
43745;BME280;29359;53.048;8.732;2022-09-16T03:09:18;100746.69;;;11.00;93.15
43745;BME280;29359;53.048;8.732;2022-09-16T03:16:30;100745.97;;;10.95;93.63
43745;BME280;29359;53.048;8.732;2022-09-16T03:20:52;100749.56;;;10.92;94.21
43745;BME280;29359;53.048;8.732;2022-09-16T03:25:12;100751.28;;;10.93;94.59
43745;BME280;29359;53.048;8.732;2022-09-16T03:27:28;100743.38;;;10.93;94.94
43745;BME280;29359;53.048;8.732;2022-09-16T03:29:37;100748.66;;;10.93;94.86
43745;BME280;29359;53.048;8.732;2022-09-16T03:36:04;100758.25;;;10.96;95.47
43745;BME280;29359;53.048;8.732;2022-09-16T03:38:10;100759.94;;;10.98;95.31
43745;BME280;29359;53.048;8.732;2022-09-16T03:40:14;100759.88;;;11.00;95.61
43745;BME280;29359;53.048;8.732;2022-09-16T03:42:18;100752.81;;;11.00;95.33
43745;BME280;29359;53.048;8.732;2022-09-16T03:44:20;100747.53;;;11.00;95.36
43745;BME280;29359;53.048;8.732;2022-09-16T03:46:22;100747.44;;;11.04;95.77
43745;BME280;29359;53.048;8.732;2022-09-16T03:48:24;100746.59;;;11.03;95.65
43745;BME280;29359;53.048;8.732;2022-09-16T03:50:25;100739.53;;;11.04;95.65
43745;BME280;29359;53.048;8.732;2022-09-16T03:52:26;100736.88;;;11.04;95.50
43745;BME280;29359;53.048;8.732;2022-09-16T03:54:28;100736.03;;;11.03;95.34
43745;BME280;29359;53.048;8.732;2022-09-16T03:56:29;100739.53;;;11.04;95.39
43745;BME280;29359;53.048;8.732;2022-09-16T03:58:31;100735.16;;;11.02;95.60
43745;BME280;29359;53.048;8.732;2022-09-16T04:00:32;100735.16;;;11.02;95.49
43745;BME280;29359;53.048;8.732;2022-09-16T04:02:34;100735.19;;;11.01;95.53
43745;BME280;29359;53.048;8.732;2022-09-16T04:04:36;100735.25;;;10.99;95.15
43745;BME280;29359;53.048;8.732;2022-09-16T04:06:37;100730.84;;;11.00;95.14
43745;BME280;29359;53.048;8.732;2022-09-16T04:08:39;100730.03;;;10.98;95.26
43745;BME280;29359;53.048;8.732;2022-09-16T04:10:40;100728.28;;;10.97;95.23
43745;BME280;29359;53.048;8.732;2022-09-16T04:12:41;100724.72;;;10.98;95.01
43745;BME280;29359;53.048;8.732;2022-09-16T04:14:43;100726.59;;;10.94;95.27
43745;BME280;29359;53.048;8.732;2022-09-16T04:16:44;100723.97;;;10.94;95.34
43745;BME280;29359;53.048;8.732;2022-09-16T04:18:47;100722.25;;;10.93;95.05
43745;BME280;29359;53.048;8.732;2022-09-16T04:20:48;100730.25;;;10.90;95.33
43745;BME280;29359;53.048;8.732;2022-09-16T04:22:50;100724.06;;;10.91;95.04
43745;BME280;29359;53.048;8.732;2022-09-16T04:24:51;100722.34;;;10.90;95.11
43745;BME280;29359;53.048;8.732;2022-09-16T04:26:52;100729.41;;;10.90;95.26
43745;BME280;29359;53.048;8.732;2022-09-16T04:28:54;100735.63;;;10.87;94.91
43745;BME280;29359;53.048;8.732;2022-09-16T04:31:00;100729.44;;;10.88;95.34
43745;BME280;29359;53.048;8.732;2022-09-16T04:33:02;100729.41;;;10.90;95.33
43745;BME280;29359;53.048;8.732;2022-09-16T04:35:04;100725.88;;;10.89;94.67
43745;BME280;29359;53.048;8.732;2022-09-16T04:37:06;100726.00;;;10.86;94.53
43745;BME280;29359;53.048;8.732;2022-09-16T04:39:07;100728.63;;;10.86;94.48
43745;BME280;29359;53.048;8.732;2022-09-16T04:41:18;100725.16;;;10.84;94.60
43745;BME280;29359;53.048;8.732;2022-09-16T04:43:19;100722.53;;;10.84;94.09
43745;BME280;29359;53.048;8.732;2022-09-16T04:45:21;100718.13;;;10.83;93.80
43745;BME280;29359;53.048;8.732;2022-09-16T04:47:22;100726.06;;;10.83;94.15
43745;BME280;29359;53.048;8.732;2022-09-16T04:49:24;100725.25;;;10.81;94.28
43745;BME280;29359;53.048;8.732;2022-09-16T04:51:26;100724.38;;;10.81;93.63
43745;BME280;29359;53.048;8.732;2022-09-16T04:53:28;100727.06;;;10.79;93.92
43745;BME280;29359;53.048;8.732;2022-09-16T04:55:30;100717.41;;;10.78;93.75
43745;BME280;29359;53.048;8.732;2022-09-16T04:57:31;100720.97;;;10.77;94.11
43745;BME280;29359;53.048;8.732;2022-09-16T04:59:33;100721.88;;;10.76;94.04
43745;BME280;29359;53.048;8.732;2022-09-16T05:01:36;100713.19;;;10.73;93.73
43745;BME280;29359;53.048;8.732;2022-09-16T05:03:43;100715.00;;;10.70;93.57
43745;BME280;29359;53.048;8.732;2022-09-16T05:05:45;100711.59;;;10.67;93.72
43745;BME280;29359;53.048;8.732;2022-09-16T05:07:46;100712.50;;;10.66;93.67
43745;BME280;29359;53.048;8.732;2022-09-16T05:09:58;100719.63;;;10.64;94.01
43745;BME280;29359;53.048;8.732;2022-09-16T05:11:59;100722.34;;;10.61;94.00
43745;BME280;29359;53.048;8.732;2022-09-16T05:14:02;100718.78;;;10.62;93.61
43745;BME280;29359;53.048;8.732;2022-09-16T05:16:07;100722.41;;;10.59;93.90
43745;BME280;29359;53.048;8.732;2022-09-16T05:18:09;100718.94;;;10.57;94.12
43745;BME280;29359;53.048;8.732;2022-09-16T05:20:11;100717.22;;;10.56;94.02
43745;BME280;29359;53.048;8.732;2022-09-16T05:22:14;100712.78;;;10.57;93.64
43745;BME280;29359;53.048;8.732;2022-09-16T05:24:15;100714.56;;;10.56;93.51
43745;BME280;29359;53.048;8.732;2022-09-16T05:26:23;100710.19;;;10.55;93.76
43745;BME280;29359;53.048;8.732;2022-09-16T05:28:24;100711.97;;;10.55;93.79
43745;BME280;29359;53.048;8.732;2022-09-16T05:30:26;100719.84;;;10.56;94.31
43745;BME280;29359;53.048;8.732;2022-09-16T05:32:27;100714.56;;;10.56;93.97
43745;BME280;29359;53.048;8.732;2022-09-16T05:34:29;100714.47;;;10.59;94.54
43745;BME280;29359;53.048;8.732;2022-09-16T05:36:34;100705.59;;;10.62;94.02
43745;BME280;29359;53.048;8.732;2022-09-16T05:38:35;100709.16;;;10.61;94.23
43745;BME280;29359;53.048;8.732;2022-09-16T05:40:37;100712.59;;;10.63;94.03
43745;BME280;29359;53.048;8.732;2022-09-16T05:42:39;100718.69;;;10.65;94.29
43745;BME280;29359;53.048;8.732;2022-09-16T05:44:40;100706.38;;;10.65;94.28
43745;BME280;29359;53.048;8.732;2022-09-16T05:46:42;100706.31;;;10.67;93.92
43745;BME280;29359;53.048;8.732;2022-09-16T05:48:44;100704.50;;;10.69;94.01
43745;BME280;29359;53.048;8.732;2022-09-16T05:51:01;100706.22;;;10.70;93.69
43745;BME280;29359;53.048;8.732;2022-09-16T05:53:03;100703.53;;;10.72;93.85
43745;BME280;29359;53.048;8.732;2022-09-16T05:55:05;100709.63;;;10.74;94.01
43745;BME280;29359;53.048;8.732;2022-09-16T05:57:06;100711.31;;;10.76;94.04
43745;BME280;29359;53.048;8.732;2022-09-16T05:59:10;100705.06;;;10.79;93.61
43745;BME280;29359;53.048;8.732;2022-09-16T06:01:15;100706.78;;;10.80;93.26
43745;BME280;29359;53.048;8.732;2022-09-16T06:03:17;100714.66;;;10.81;93.48
43745;BME280;29359;53.048;8.732;2022-09-16T06:05:19;100715.50;;;10.83;93.39
43745;BME280;29359;53.048;8.732;2022-09-16T06:07:20;100711.88;;;10.87;93.23
43745;BME280;29359;53.048;8.732;2022-09-16T06:09:23;100710.03;;;10.89;93.06
43745;BME280;29359;53.048;8.732;2022-09-16T06:11:26;100713.44;;;10.93;93.21
43745;BME280;29359;53.048;8.732;2022-09-16T06:13:28;100713.31;;;10.97;92.73
43745;BME280;29359;53.048;8.732;2022-09-16T06:15:29;100715.84;;;11.00;92.71
43745;BME280;29359;53.048;8.732;2022-09-16T06:17:31;100720.13;;;11.05;92.17
43745;BME280;29359;53.048;8.732;2022-09-16T06:19:33;100720.94;;;11.07;92.14
43745;BME280;29359;53.048;8.732;2022-09-16T06:21:35;100716.50;;;11.07;91.92
43745;BME280;29359;53.048;8.732;2022-09-16T06:23:38;100719.91;;;11.11;91.92
43745;BME280;29359;53.048;8.732;2022-09-16T06:25:40;100718.09;;;11.13;91.33
43745;BME280;29359;53.048;8.732;2022-09-16T06:27:41;100723.28;;;11.16;91.27
43745;BME280;29359;53.048;8.732;2022-09-16T06:29:43;100726.69;;;11.19;91.16
43745;BME280;29359;53.048;8.732;2022-09-16T06:31:44;100716.06;;;11.21;91.02
43745;BME280;29359;53.048;8.732;2022-09-16T06:33:46;100713.31;;;11.24;90.78
43745;BME280;29359;53.048;8.732;2022-09-16T06:35:50;100714.09;;;11.27;90.42
43745;BME280;29359;53.048;8.732;2022-09-16T06:37:53;100716.69;;;11.29;90.13
43745;BME280;29359;53.048;8.732;2022-09-16T06:39:55;100708.72;;;11.30;89.81
43745;BME280;29359;53.048;8.732;2022-09-16T06:41:56;100708.66;;;11.32;89.37
43745;BME280;29359;53.048;8.732;2022-09-16T06:43:58;100709.47;;;11.34;88.83
43745;BME280;29359;53.048;8.732;2022-09-16T06:46:08;100707.66;;;11.36;88.89
43745;BME280;29359;53.048;8.732;2022-09-16T06:48:13;100705.72;;;11.41;88.92
43745;BME280;29359;53.048;8.732;2022-09-16T06:50:15;100705.56;;;11.46;88.53
43745;BME280;29359;53.048;8.732;2022-09-16T06:52:16;100708.84;;;11.52;88.07
43745;BME280;29359;53.048;8.732;2022-09-16T06:54:19;100697.19;;;11.58;87.58
43745;BME280;29359;53.048;8.732;2022-09-16T06:56:21;100701.31;;;11.67;87.10
43745;BME280;29359;53.048;8.732;2022-09-16T06:58:22;100705.53;;;11.72;87.00
43745;BME280;29359;53.048;8.732;2022-09-16T07:00:24;100697.44;;;11.78;86.10
43745;BME280;29359;53.048;8.732;2022-09-16T07:02:25;100697.25;;;11.83;85.60
43745;BME280;29359;53.048;8.732;2022-09-16T07:04:27;100701.47;;;11.88;85.62
43745;BME280;29359;53.048;8.732;2022-09-16T07:06:29;100703.78;;;11.98;85.75
43745;BME280;29359;53.048;8.732;2022-09-16T07:08:52;100699.25;;;12.01;85.16
43745;BME280;29359;53.048;8.732;2022-09-16T07:10:59;100701.03;;;12.01;84.51
43745;BME280;29359;53.048;8.732;2022-09-16T07:13:00;100707.22;;;12.00;84.39
43745;BME280;29359;53.048;8.732;2022-09-16T07:15:02;100699.34;;;11.98;83.94
43745;BME280;29359;53.048;8.732;2022-09-16T07:17:04;100704.47;;;12.03;84.41
43745;BME280;29359;53.048;8.732;2022-09-16T07:19:05;100703.50;;;12.05;83.85
43745;BME280;29359;53.048;8.732;2022-09-16T07:21:12;100695.44;;;12.08;83.36
43745;BME280;29359;53.048;8.732;2022-09-16T07:23:14;100698.09;;;12.08;83.48
43745;BME280;29359;53.048;8.732;2022-09-16T07:25:16;100695.34;;;12.11;83.54
43745;BME280;29359;53.048;8.732;2022-09-16T07:27:17;100696.94;;;12.17;83.82
43745;BME280;29359;53.048;8.732;2022-09-16T07:29:18;100691.47;;;12.21;83.40
43745;BME280;29359;53.048;8.732;2022-09-16T07:31:24;100705.44;;;12.25;83.04
43745;BME280;29359;53.048;8.732;2022-09-16T07:33:26;100705.22;;;12.31;83.64
43745;BME280;29359;53.048;8.732;2022-09-16T07:35:27;100708.50;;;12.38;83.82
43745;BME280;29359;53.048;8.732;2022-09-16T07:37:29;100705.59;;;12.44;83.47
43745;BME280;29359;53.048;8.732;2022-09-16T07:39:30;100701.78;;;12.51;83.04
43745;BME280;29359;53.048;8.732;2022-09-16T07:41:35;100710.34;;;12.59;82.50
43745;BME280;29359;53.048;8.732;2022-09-16T07:43:38;100708.50;;;12.61;82.50
43745;BME280;29359;53.048;8.732;2022-09-16T07:45:40;100711.16;;;12.61;82.18
43745;BME280;29359;53.048;8.732;2022-09-16T07:47:42;100705.72;;;12.64;82.04
43745;BME280;29359;53.048;8.732;2022-09-16T07:49:43;100694.16;;;12.67;81.60
43745;BME280;29359;53.048;8.732;2022-09-16T07:51:45;100692.25;;;12.70;80.78
43745;BME280;29359;53.048;8.732;2022-09-16T07:53:47;100712.44;;;12.73;80.29
43745;BME280;29359;53.048;8.732;2022-09-16T07:55:53;100717.63;;;12.76;79.55
43745;BME280;29359;53.048;8.732;2022-09-16T07:57:54;100707.78;;;12.79;79.46
43745;BME280;29359;53.048;8.732;2022-09-16T07:59:56;100722.69;;;12.82;79.38
43745;BME280;29359;53.048;8.732;2022-09-16T08:01:58;100710.19;;;12.85;79.18
43745;BME280;29359;53.048;8.732;2022-09-16T08:04:00;100704.81;;;12.87;79.57
43745;BME280;29359;53.048;8.732;2022-09-16T08:06:04;100710.72;;;12.94;79.90
43745;BME280;29359;53.048;8.732;2022-09-16T08:08:06;100702.66;;;12.97;79.49
43745;BME280;29359;53.048;8.732;2022-09-16T08:10:08;100713.19;;;12.98;78.91
43745;BME280;29359;53.048;8.732;2022-09-16T08:12:09;100712.25;;;13.01;79.59
43745;BME280;29359;53.048;8.732;2022-09-16T08:14:11;100713.84;;;13.05;78.55
43745;BME280;29359;53.048;8.732;2022-09-16T08:16:15;100720.69;;;13.10;78.75
43745;BME280;29359;53.048;8.732;2022-09-16T08:18:17;100707.25;;;13.15;79.14
43745;BME280;29359;53.048;8.732;2022-09-16T08:20:19;100712.31;;;13.21;79.79
43745;BME280;29359;53.048;8.732;2022-09-16T08:22:20;100709.41;;;13.27;78.92
43745;BME280;29359;53.048;8.732;2022-09-16T08:24:23;100705.66;;;13.33;77.95
43745;BME280;29359;53.048;8.732;2022-09-16T08:26:25;100715.13;;;13.38;77.48
43745;BME280;29359;53.048;8.732;2022-09-16T08:28:28;100706.97;;;13.43;76.98
43745;BME280;29359;53.048;8.732;2022-09-16T08:30:49;100709.59;;;13.44;75.67
43745;BME280;29359;53.048;8.732;2022-09-16T08:32:57;100716.44;;;13.50;75.80
43745;BME280;29359;53.048;8.732;2022-09-16T08:34:59;100710.88;;;13.56;75.67
43745;BME280;29359;53.048;8.732;2022-09-16T08:37:01;100715.03;;;13.62;74.82
43745;BME280;29359;53.048;8.732;2022-09-16T08:39:03;100713.06;;;13.67;74.73
43745;BME280;29359;53.048;8.732;2022-09-16T08:41:16;100711.13;;;13.70;74.95
43745;BME280;29359;53.048;8.732;2022-09-16T08:43:52;100714.38;;;13.77;74.29
43745;BME280;29359;53.048;8.732;2022-09-16T08:46:06;100714.03;;;13.84;73.22
43745;BME280;29359;53.048;8.732;2022-09-16T08:48:20;100708.56;;;13.89;72.86
43745;BME280;29359;53.048;8.732;2022-09-16T08:50:32;100710.16;;;13.93;72.61
43745;BME280;29359;53.048;8.732;2022-09-16T08:52:36;100705.56;;;13.97;73.16
43745;BME280;29359;53.048;8.732;2022-09-16T08:54:49;100693.88;;;14.01;72.04
43745;BME280;29359;53.048;8.732;2022-09-16T08:56:59;100705.03;;;14.09;72.11
43745;BME280;29359;53.048;8.732;2022-09-16T08:59:04;100703.88;;;14.14;71.55
43745;BME280;29359;53.048;8.732;2022-09-16T09:01:38;100698.22;;;14.22;71.38
43745;BME280;29359;53.048;8.732;2022-09-16T09:03:43;100702.28;;;14.31;70.55
43745;BME280;29359;53.048;8.732;2022-09-16T09:05:51;100701.06;;;14.38;69.12
43745;BME280;29359;53.048;8.732;2022-09-16T09:10:47;100706.78;;;14.49;67.34
43745;BME280;29359;53.048;8.732;2022-09-16T09:13:20;100703.81;;;14.55;67.47
43745;BME280;29359;53.048;8.732;2022-09-16T09:15:51;100705.41;;;14.59;66.85
43745;BME280;29359;53.048;8.732;2022-09-16T09:18:15;100716.53;;;14.67;64.09
43745;BME280;29359;53.048;8.732;2022-09-16T09:20:43;100698.72;;;14.69;63.92
43745;BME280;29359;53.048;8.732;2022-09-16T09:27:14;100709.19;;;14.72;62.88
43745;BME280;29359;53.048;8.732;2022-09-16T09:29:20;100707.16;;;14.79;64.59
43745;BME280;29359;53.048;8.732;2022-09-16T09:40:55;100707.13;;;14.98;63.50
43745;BME280;29359;53.048;8.732;2022-09-16T09:45:30;100697.56;;;14.94;63.04
43745;BME280;29359;53.048;8.732;2022-09-16T09:48:02;100684.63;;;15.05;63.67
43745;BME280;29359;53.048;8.732;2022-09-16T09:50:27;100677.13;;;15.13;62.96
43745;BME280;29359;53.048;8.732;2022-09-16T09:52:36;100685.69;;;15.20;62.83
43745;BME280;29359;53.048;8.732;2022-09-16T09:54:44;100685.28;;;15.27;63.21
43745;BME280;29359;53.048;8.732;2022-09-16T09:56:49;100686.06;;;15.29;62.80
43745;BME280;29359;53.048;8.732;2022-09-16T10:01:04;100685.38;;;15.26;59.31
43745;BME280;29359;53.048;8.732;2022-09-16T10:03:17;100678.47;;;15.22;59.22
43745;BME280;29359;53.048;8.732;2022-09-16T10:05:24;100677.69;;;15.20;59.17
43745;BME280;29359;53.048;8.732;2022-09-16T10:07:26;100670.28;;;15.26;59.89
43745;BME280;29359;53.048;8.732;2022-09-16T10:09:29;100667.00;;;15.38;60.51
43745;BME280;29359;53.048;8.732;2022-09-16T10:11:31;100666.44;;;15.49;59.83
43745;BME280;29359;53.048;8.732;2022-09-16T10:13:32;100658.13;;;15.55;59.25
43745;BME280;29359;53.048;8.732;2022-09-16T10:15:34;100658.75;;;15.62;59.55
43745;BME280;29359;53.048;8.732;2022-09-16T10:17:36;100671.41;;;15.74;58.84
43745;BME280;29359;53.048;8.732;2022-09-16T10:19:50;100661.22;;;15.82;58.58
43745;BME280;29359;53.048;8.732;2022-09-16T10:21:55;100656.59;;;15.86;58.47
43745;BME280;29359;53.048;8.732;2022-09-16T10:23:56;100661.50;;;15.93;59.85
43745;BME280;29359;53.048;8.732;2022-09-16T10:26:19;100657.41;;;16.03;59.56
43745;BME280;29359;53.048;8.732;2022-09-16T10:28:23;100664.16;;;16.11;58.82
43745;BME280;29359;53.048;8.732;2022-09-16T10:30:31;100655.84;;;15.99;55.47
43745;BME280;29359;53.048;8.732;2022-09-16T10:32:44;100649.91;;;15.94;56.90
43745;BME280;29359;53.048;8.732;2022-09-16T10:34:46;100651.09;;;16.06;56.65
43745;BME280;29359;53.048;8.732;2022-09-16T10:36:58;100653.50;;;16.11;56.61
43745;BME280;29359;53.048;8.732;2022-09-16T10:39:01;100653.34;;;16.14;55.71
43745;BME280;29359;53.048;8.732;2022-09-16T10:41:15;100644.59;;;16.27;56.05
43745;BME280;29359;53.048;8.732;2022-09-16T10:43:17;100648.72;;;16.33;54.38
43745;BME280;29359;53.048;8.732;2022-09-16T10:45:34;100664.50;;;16.20;54.35
43745;BME280;29359;53.048;8.732;2022-09-16T10:47:36;100666.06;;;15.91;55.10
43745;BME280;29359;53.048;8.732;2022-09-16T10:49:44;100662.13;;;15.98;55.72
43745;BME280;29359;53.048;8.732;2022-09-16T10:51:48;100662.78;;;16.19;55.95
43745;BME280;29359;53.048;8.732;2022-09-16T10:53:52;100658.47;;;16.50;54.84
43745;BME280;29359;53.048;8.732;2022-09-16T10:56:00;100662.88;;;16.67;54.35
43745;BME280;29359;53.048;8.732;2022-09-16T10:58:07;100653.06;;;16.83;54.39
43745;BME280;29359;53.048;8.732;2022-09-16T11:00:20;100669.75;;;16.86;53.24
43745;BME280;29359;53.048;8.732;2022-09-16T11:11:04;100662.72;;;17.31;50.85
43745;BME280;29359;53.048;8.732;2022-09-16T11:20:00;100636.34;;;17.11;50.61
43745;BME280;29359;53.048;8.732;2022-09-16T11:31:28;100657.06;;;17.21;52.30
43745;BME280;29359;53.048;8.732;2022-09-16T11:38:34;100640.22;;;18.09;49.04
43745;BME280;29359;53.048;8.732;2022-09-16T11:47:35;100670.50;;;15.39;62.52
43745;BME280;29359;53.048;8.732;2022-09-16T11:52:36;100653.53;;;14.69;64.75
43745;BME280;29359;53.048;8.732;2022-09-16T11:55:17;100644.03;;;14.47;65.30
43745;BME280;29359;53.048;8.732;2022-09-16T11:57:26;100635.38;;;14.41;66.55
43745;BME280;29359;53.048;8.732;2022-09-16T12:01:55;100634.75;;;14.55;65.94
43745;BME280;29359;53.048;8.732;2022-09-16T12:04:04;100628.94;;;14.66;66.26
43745;BME280;29359;53.048;8.732;2022-09-16T12:06:11;100618.53;;;14.97;64.47
43745;BME280;29359;53.048;8.732;2022-09-16T12:11:17;100612.91;;;15.55;62.53
43745;BME280;29359;53.048;8.732;2022-09-16T12:13:24;100613.47;;;15.79;58.98
43745;BME280;29359;53.048;8.732;2022-09-16T12:15:46;100609.28;;;15.91;58.04
43745;BME280;29359;53.048;8.732;2022-09-16T12:17:55;100604.41;;;15.99;58.35
43745;BME280;29359;53.048;8.732;2022-09-16T12:20:02;100618.56;;;15.99;57.63
43745;BME280;29359;53.048;8.732;2022-09-16T12:22:09;100606.19;;;15.98;57.84
43745;BME280;29359;53.048;8.732;2022-09-16T12:24:21;100603.28;;;16.03;58.08
43745;BME280;29359;53.048;8.732;2022-09-16T12:26:32;100603.16;;;16.06;57.71
43745;BME280;29359;53.048;8.732;2022-09-16T12:28:56;100594.88;;;15.95;58.50
43745;BME280;29359;53.048;8.732;2022-09-16T12:31:18;100598.59;;;15.75;60.31
43745;BME280;29359;53.048;8.732;2022-09-16T12:33:34;100614.78;;;15.53;63.79
43745;BME280;29359;53.048;8.732;2022-09-16T12:35:43;100617.41;;;15.20;67.96
43745;BME280;29359;53.048;8.732;2022-09-16T12:37:50;100602.41;;;14.83;70.00
43745;BME280;29359;53.048;8.732;2022-09-16T12:39:52;100598.50;;;14.54;71.98